Aviation Digital Data Service (ADDS)

Output produced by METARs form (0622 UTC 22 October 2014)
found at http://www.aviationweather.gov/adds/metars/
 
KMDT 220556Z 31007KT 10SM OVC055 12/09 A2989 RMK AO2 SLP122 T01220089 10128 20117 57009
KMDT 220456Z 31006KT 10SM SCT040 BKN100 OVC140 12/09 A2990 RMK AO2 SLP127 T01220089 401720094
KMDT 220356Z 32006KT 10SM SCT070 OVC100 12/09 A2991 RMK AO2 SLP128 T01220089
KMDT 220256Z 30007KT 10SM SCT070 BKN100 OVC140 12/09 A2992 RMK AO2 SLP132 T01170089 51015
KMDT 220156Z 31009KT 10SM FEW040 SCT070 OVC120 12/09 A2991 RMK AO2 SLP128 T01220089
KMDT 220056Z 30009KT 10SM SCT040 BKN060 BKN110 OVC150 12/09 A2990 RMK AO2 SLP124 T01220089
KMDT 212356Z 30009KT 10SM FEW050 SCT080 BKN150 OVC250 12/09 A2987 RMK AO2 RAB03E13 SLP117 P0000 60000 T01220094 10172 20122 52017
KMDT 212256Z 00000KT 10SM SCT070 OVC100 13/11 A2986 RMK AO2 RAE07B30E52 SLP112 P0000 T01330111
KMDT 212156Z 00000KT 9SM -RA FEW050 BKN100 15/11 A2984 RMK AO2 RAB54 SLP105 P0000 T01500106
KMDT 212056Z 31006KT 10SM SCT050 BKN080 BKN120 16/09 A2982 RMK AO2 SLP100 T01560094 55002
KMDT 211956Z 35004KT 10SM SCT050TCU BKN090 BKN250 17/08 A2981 RMK AO2 SLP097 TCU NE-E AND DSNT SW T01720083
KMDT 211856Z 27005KT 10SM SCT045 BKN090 BKN250 17/09 A2981 RMK AO2 SLP097 T01670094
KMDT 211756Z 29005KT 10SM BKN043 17/09 A2983 RMK AO2 SLP102 T01720094 10172 20100 58014
KMDT 211656Z 29006KT 10SM SCT025 SCT085 16/11 A2984 RMK AO2 SLP106 T01560106
KMDT 211556Z 32005KT 8SM BKN041 OVC080 14/11 A2986 RMK AO2 SLP114 T01390106
KMDT 211456Z 27003KT 5SM BR OVC050 12/11 A2987 RMK AO2 SLP115 T01220111
KMDT 211430Z 00000KT 5SM BR SCT007 OVC048 12/11 A2987 RMK AO2 T01220106
KMDT 211356Z 10003KT 4SM BR BKN005 OVC085 12/11 A2987 RMK AO2 SLP116 T01170106
KMDT 211341Z 00000KT 3SM BR FEW002 OVC085 12/11 A2987 RMK AO2 T01170106
KMDT 211334Z 12003KT 1 3/4SM BR SCT002 OVC085 11/11 A2987 RMK AO2 T01110106
KMDT 211316Z 13004KT 2SM BR SCT003 BKN055 OVC085 11/10 A2987 RMK AO2 T01110100
KMDT 211307Z 13004KT 3SM BR SCT003 BKN060 BKN085 11/11 A2988 RMK AO2 T01110106
KMDT 211256Z 15003KT 4SM BR BKN095 12/10 A2987 RMK AO2 SLP117 T01170100
KMDT 211200Z 08003KT 2 1/2SM BR BKN005 BKN085 10/09 A2986 RMK AO2 T01000094
KMDT 211156Z 00000KT 2 1/2SM BR BKN095 09/09 A2986 RMK AO2 SLP112 T00940089 10117 20094
KMDT 211139Z 00000KT 2SM BR BKN095 09/09 A2986 RMK AO2 T00940089
KMDT 211105Z 00000KT 3SM BR FEW004 SCT090 BKN120 09/09 A2985 RMK AO2 T00940089 $
KMDT 211056Z 00000KT 2 1/2SM BR BKN095 09/09 A2985 RMK AO2 SLP110 T00940089
KMDT 211045Z 00000KT 5SM BR BKN095 10/09 A2985 RMK AO2 T01000094
KMDT 211036Z 00000KT 2 1/2SM BR BKN095 10/09 A2985 RMK AO2 T01000094
KMDT 210956Z 00000KT 4SM BR BKN095 09/09 A2985 RMK AO2 SLP108 T00940089
KMDT 210915Z 06003KT 7SM FEW009 SCT065 OVC095 11/10 A2985 RMK AO2 T01060100
KMDT 210856Z 00000KT 6SM BR BKN075 BKN095 11/11 A2985 RMK AO2 RAB11E35 SLP110 P0000 60000 T01110106 56011
KMDT 210756Z 03003KT 8SM OVC080 11/11 A2985 RMK AO2 RAB09E18 SLP110 P0000 T01110106
KMDT 210656Z 14003KT 10SM BKN075 OVC095 11/10 A2988 RMK AO2 RAB42E52 SLP119 P0000 T01110100
KMDT 210556Z 00000KT 10SM BKN065 OVC080 12/11 A2988 RMK AO2 RAE44 SLPNO P0008 60014 T01170106 10139 20111 58010
KMDT 210456Z VRB04KT 3SM +RA BR BKN035 OVC075 12/10 A2992 RMK AO2 RAB23 SLP132 P0006 T01170100 402390022
KMDT 210356Z 00000KT 10SM BKN070 OVC095 12/09 A2991 RMK AO2 SLPNO T01220094
KMDT 210256Z 16008KT 10SM OVC080 12/08 A2992 RMK AO2 RAB06E18 SLP131 P0000 60000 T01220083 58006
KMDT 210156Z VRB04KT 10SM BKN075 OVC090 13/07 A2994 RMK AO2 RAB07E47 SLP140 P0000 T01330072
KMDT 210056Z 22005KT 10SM SCT080 BKN120 OVC150 14/07 A2994 RMK AO2 SLP139 T01390072
KMDT 202356Z 16004KT 10SM SCT070 OVC090 14/07 A2993 RMK AO2 SLP138 T01390072 10172 20128
KMDT 202256Z 00000KT 10SM SCT070 BKN130 OVC250 13/09 A2994 RMK AO2 SLP139 T01330089
KMDT 202156Z 23003KT 10SM FEW100 BKN150 OVC250 16/05 A2994 RMK AO2 SLP139 T01560050
KMDT 202056Z 21007KT 180V250 10SM FEW100 BKN140 OVC250 16/05 A2993 RMK AO2 SLP138 T01610050
KMDT 201956Z 19006KT 10SM BKN150 OVC250 17/05 A2993 RMK AO2 SLP137 T01720050
KMDT 201856Z VRB05KT 10SM SCT160 OVC250 17/04 A2994 RMK AO2 SLP141 T01720039